createdAt,value
2023-03-03T00:01:34.322Z,-3.01
2023-03-03T00:04:01.630Z,-2.96
2023-03-03T00:06:30.075Z,-2.92
2023-03-03T00:08:57.355Z,-2.86
2023-03-03T00:11:24.502Z,-2.84
2023-03-03T00:13:55.424Z,-2.79
2023-03-03T00:16:25.455Z,-2.79
2023-03-03T00:18:53.568Z,-2.78
2023-03-03T00:21:39.864Z,-2.75
2023-03-03T00:24:24.213Z,-2.72
2023-03-03T00:26:55.925Z,-2.72
2023-03-03T00:29:41.848Z,-2.69
2023-03-03T00:32:25.496Z,-2.71
2023-03-03T00:34:57.152Z,-2.70
2023-03-03T00:37:29.324Z,-2.65
2023-03-03T00:40:12.247Z,-2.64
2023-03-03T00:42:39.351Z,-2.57
2023-03-03T00:45:28.975Z,-2.49
2023-03-03T00:47:56.976Z,-2.48
2023-03-03T00:50:30.538Z,-2.45
2023-03-03T00:53:06.156Z,-2.42
2023-03-03T00:55:34.652Z,-2.41
2023-03-03T00:58:01.786Z,-2.38
2023-03-03T01:00:34.520Z,-2.38
2023-03-03T01:03:05.629Z,-2.42
2023-03-03T01:05:32.967Z,-2.42
2023-03-03T01:08:00.246Z,-2.38
2023-03-03T01:10:29.650Z,-2.39
2023-03-03T01:12:57.847Z,-2.34
2023-03-03T01:15:24.916Z,-2.36
2023-03-03T01:17:52.005Z,-2.31
2023-03-03T01:20:19.898Z,-2.30
2023-03-03T01:22:46.842Z,-2.34
2023-03-03T01:25:14.098Z,-2.38
2023-03-03T01:27:41.176Z,-2.40
2023-03-03T01:30:09.640Z,-2.35
2023-03-03T01:32:37.075Z,-2.37
2023-03-03T01:35:04.208Z,-2.35
2023-03-03T01:37:48.711Z,-2.33
2023-03-03T01:40:22.552Z,-2.30
2023-03-03T01:42:49.558Z,-2.31
2023-03-03T01:45:39.325Z,-2.28
2023-03-03T01:48:10.579Z,-2.28
2023-03-03T01:50:41.809Z,-2.20
2023-03-03T01:53:14.351Z,-2.13
2023-03-03T01:55:42.612Z,-2.08
2023-03-03T01:58:14.953Z,-2.06
2023-03-03T02:00:46.294Z,-2.03
2023-03-03T02:03:13.232Z,-2.05
2023-03-03T02:05:40.836Z,-2.03
2023-03-03T02:08:09.419Z,-2.05
2023-03-03T02:10:38.982Z,-2.06
2023-03-03T02:13:05.876Z,-2.02
2023-03-03T02:15:36.203Z,-2.04
2023-03-03T02:18:06.373Z,-2.05
2023-03-03T02:20:45.311Z,-2.02
2023-03-03T02:23:36.296Z,-2.00
2023-03-03T02:26:06.688Z,-2.03
2023-03-03T02:28:35.895Z,-2.08
2023-03-03T02:31:13.240Z,-2.10
2023-03-03T02:33:46.898Z,-2.14
2023-03-03T02:36:23.115Z,-2.16
2023-03-03T02:39:13.179Z,-2.16
2023-03-03T02:42:01.060Z,-2.19
2023-03-03T02:44:35.466Z,-2.16
2023-03-03T02:47:02.539Z,-2.18
2023-03-03T02:49:32.862Z,-2.18
2023-03-03T02:52:00.875Z,-2.22
2023-03-03T02:54:30.368Z,-2.23
2023-03-03T02:56:59.340Z,-2.21
2023-03-03T02:59:27.307Z,-2.22
2023-03-03T03:01:55.688Z,-2.26
2023-03-03T03:04:25.054Z,-2.29
2023-03-03T03:06:53.343Z,-2.35
2023-03-03T03:09:22.964Z,-2.38
2023-03-03T03:11:51.872Z,-2.37
2023-03-03T03:14:21.977Z,-2.37
2023-03-03T03:16:49.158Z,-2.39
2023-03-03T03:19:16.266Z,-2.41
2023-03-03T03:21:44.561Z,-2.41
2023-03-03T03:24:11.885Z,-2.38
2023-03-03T03:26:43.458Z,-2.36
2023-03-03T03:29:11.244Z,-2.36
2023-03-03T03:31:39.583Z,-2.33
2023-03-03T03:34:06.605Z,-2.33
2023-03-03T03:36:34.049Z,-2.35
2023-03-03T03:39:03.036Z,-2.32
2023-03-03T03:41:31.007Z,-2.29
2023-03-03T03:43:58.178Z,-2.31
2023-03-03T03:46:25.253Z,-2.31
2023-03-03T03:48:52.514Z,-2.30
2023-03-03T03:51:21.727Z,-2.27
2023-03-03T03:53:48.943Z,-2.25
2023-03-03T03:56:16.138Z,-2.24
2023-03-03T03:58:45.030Z,-2.23
2023-03-03T04:01:14.572Z,-2.23
2023-03-03T04:03:46.478Z,-2.28
2023-03-03T04:06:17.491Z,-2.31
2023-03-03T04:08:44.872Z,-2.31
2023-03-03T04:11:12.837Z,-2.35
2023-03-03T04:13:42.713Z,-2.31
2023-03-03T04:16:16.386Z,-2.30
2023-03-03T04:18:51.205Z,-2.28
2023-03-03T04:21:22.619Z,-2.26
2023-03-03T04:23:58.881Z,-2.30
2023-03-03T04:26:38.369Z,-2.30
2023-03-03T04:29:08.780Z,-2.30
2023-03-03T04:31:43.818Z,-2.28
2023-03-03T04:34:25.880Z,-2.30
2023-03-03T04:37:04.555Z,-2.30
2023-03-03T04:39:36.143Z,-2.32
2023-03-03T04:42:05.370Z,-2.29
2023-03-03T04:44:47.846Z,-2.31
2023-03-03T04:47:18.773Z,-2.25
2023-03-03T04:49:47.717Z,-2.25
2023-03-03T04:52:19.169Z,-2.24
2023-03-03T04:54:50.245Z,-2.23
2023-03-03T04:57:45.290Z,-2.20
2023-03-03T05:00:17.574Z,-2.17
2023-03-03T05:02:58.125Z,-2.15
2023-03-03T05:05:36.629Z,-2.14
2023-03-03T05:08:11.276Z,-2.09
2023-03-03T05:10:56.235Z,-2.05
2023-03-03T05:13:30.955Z,-2.04
2023-03-03T05:16:04.454Z,-2.05
2023-03-03T05:18:35.694Z,-2.03
2023-03-03T05:21:02.723Z,-2.05
2023-03-03T05:23:29.768Z,-2.02
2023-03-03T05:25:56.985Z,-1.96
2023-03-03T05:28:24.171Z,-1.96
2023-03-03T05:30:56.285Z,-1.96
2023-03-03T05:33:23.275Z,-2.01
2023-03-03T05:35:54.548Z,-1.95
2023-03-03T05:38:21.708Z,-1.93
2023-03-03T05:40:48.792Z,-1.92
2023-03-03T05:43:15.767Z,-1.92
2023-03-03T05:45:42.844Z,-1.88
2023-03-03T05:48:10.502Z,-1.84
2023-03-03T05:50:38.255Z,-1.85
2023-03-03T05:53:05.240Z,-1.84
2023-03-03T05:55:32.704Z,-1.86
2023-03-03T05:57:59.643Z,-1.88
2023-03-03T06:00:26.569Z,-1.84
2023-03-03T06:02:53.832Z,-1.80
2023-03-03T06:05:20.911Z,-1.84
2023-03-03T06:07:47.900Z,-1.75
2023-03-03T06:10:15.112Z,-1.66
2023-03-03T06:12:46.367Z,-1.55
2023-03-03T06:15:13.611Z,-1.46
2023-03-03T06:17:40.584Z,-1.33
2023-03-03T06:20:08.080Z,-1.33
2023-03-03T06:22:34.988Z,-1.36
2023-03-03T06:25:02.038Z,-1.41
2023-03-03T06:27:30.525Z,-1.42
2023-03-03T06:29:57.558Z,-1.37
2023-03-03T06:32:24.578Z,-1.36
2023-03-03T06:34:51.784Z,-1.40
2023-03-03T06:37:18.857Z,-1.45
2023-03-03T06:39:45.928Z,-1.44
2023-03-03T06:42:12.834Z,-1.43
2023-03-03T06:44:40.019Z,-1.40
2023-03-03T06:47:07.167Z,-1.39
2023-03-03T06:49:34.192Z,-1.44
2023-03-03T06:52:05.943Z,-1.40
2023-03-03T06:54:33.035Z,-1.37
2023-03-03T06:57:01.651Z,-1.33
2023-03-03T06:59:28.973Z,-1.33
2023-03-03T07:01:56.592Z,-1.32
2023-03-03T07:04:34.110Z,-1.30
2023-03-03T07:07:11.861Z,-1.32
2023-03-03T07:09:38.927Z,-1.26
2023-03-03T07:12:11.076Z,-1.21
2023-03-03T07:14:43.065Z,-1.16
2023-03-03T07:17:16.842Z,-1.12
2023-03-03T07:19:44.511Z,-1.06
2023-03-03T07:22:14.411Z,-1.01
2023-03-03T07:24:42.550Z,-1.00
2023-03-03T07:27:32.514Z,-0.96
2023-03-03T07:30:24.680Z,-1.03
2023-03-03T07:32:57.803Z,-1.08
2023-03-03T07:35:41.377Z,-1.09
2023-03-03T07:38:14.275Z,-1.06
2023-03-03T07:40:48.537Z,-1.04
2023-03-03T07:43:50.873Z,-1.06
2023-03-03T07:46:51.999Z,-1.03
2023-03-03T07:49:36.917Z,-1.10
2023-03-03T07:52:25.460Z,-1.08
2023-03-03T07:54:53.729Z,-1.10
2023-03-03T07:57:21.950Z,-1.04
2023-03-03T07:59:51.640Z,-0.93
2023-03-03T08:02:27.494Z,-0.88
2023-03-03T08:04:55.391Z,-0.97
2023-03-03T08:07:23.746Z,-0.94
2023-03-03T08:10:01.226Z,-0.85
2023-03-03T08:12:43.427Z,-0.85
2023-03-03T08:15:30.331Z,-0.69
2023-03-03T08:18:02.341Z,-0.49
2023-03-03T08:20:29.431Z,-0.28
2023-03-03T08:22:56.440Z,-0.06
2023-03-03T08:25:23.773Z,0.06
2023-03-03T08:27:50.793Z,0.08
2023-03-03T08:30:17.918Z,0.21
2023-03-03T08:32:45.001Z,0.21
2023-03-03T08:35:11.941Z,0.13
2023-03-03T08:37:38.860Z,0.10
2023-03-03T08:40:06.460Z,0.05
2023-03-03T08:42:33.458Z,0.08
2023-03-03T08:45:00.485Z,-0.16
2023-03-03T08:47:27.430Z,-0.19
2023-03-03T08:49:54.950Z,-0.17
2023-03-03T08:52:21.973Z,-0.07
2023-03-03T08:54:48.916Z,-0.06
2023-03-03T08:57:19.168Z,0.01
2023-03-03T08:59:47.972Z,-0.05
2023-03-03T09:02:15.297Z,0.13
2023-03-03T09:04:42.245Z,0.15
2023-03-03T09:07:09.485Z,0.19
2023-03-03T09:09:37.548Z,0.17
2023-03-03T09:12:17.405Z,0.18
2023-03-03T09:14:44.719Z,0.32
2023-03-03T09:17:35.504Z,0.48
2023-03-03T09:20:36.379Z,0.48
2023-03-03T09:23:26.070Z,0.50
2023-03-03T09:25:53.422Z,0.48
2023-03-03T09:28:31.877Z,0.52
2023-03-03T09:31:01.405Z,0.53
2023-03-03T09:33:45.805Z,0.55
2023-03-03T09:36:37.704Z,0.62
2023-03-03T09:39:19.942Z,0.74
2023-03-03T09:42:11.085Z,0.79
2023-03-03T09:44:46.054Z,0.78
2023-03-03T09:47:22.341Z,0.81
2023-03-03T09:50:20.412Z,0.84
2023-03-03T09:53:08.790Z,0.73
2023-03-03T09:55:56.267Z,0.89
2023-03-03T09:58:23.348Z,0.88
2023-03-03T10:01:27.229Z,1.24
2023-03-03T10:04:00.362Z,1.35
2023-03-03T10:06:34.229Z,1.20
2023-03-03T10:09:10.224Z,0.89
2023-03-03T10:12:07.837Z,0.66
2023-03-03T10:14:58.008Z,0.63
2023-03-03T10:17:39.923Z,0.78
2023-03-03T10:20:40.437Z,0.83
2023-03-03T10:23:40.850Z,0.94
2023-03-03T10:26:34.707Z,0.90
2023-03-03T10:29:09.103Z,0.93
2023-03-03T10:31:49.760Z,0.97
2023-03-03T10:34:25.504Z,1.01
2023-03-03T10:36:56.472Z,0.94
2023-03-03T10:39:29.379Z,0.89
2023-03-03T10:42:01.948Z,0.54
2023-03-03T10:44:37.918Z,0.26
2023-03-03T10:47:42.201Z,0.21
2023-03-03T10:50:16.146Z,0.39
2023-03-03T10:52:53.123Z,0.34
2023-03-03T10:55:28.688Z,0.51
2023-03-03T10:58:04.703Z,0.62
2023-03-03T11:00:54.936Z,0.56
2023-03-03T11:03:21.857Z,0.61
2023-03-03T11:06:05.496Z,1.04
2023-03-03T11:08:40.190Z,1.26
2023-03-03T11:11:09.929Z,1.10
2023-03-03T11:13:52.251Z,1.04
2023-03-03T11:16:34.205Z,0.99
2023-03-03T11:19:34.521Z,0.93
2023-03-03T11:22:04.462Z,0.90
2023-03-03T11:24:38.442Z,0.74
2023-03-03T11:27:30.116Z,0.58
2023-03-03T11:30:19.098Z,0.47
2023-03-03T11:32:50.962Z,0.38
2023-03-03T11:35:58.066Z,0.36
2023-03-03T11:38:40.233Z,0.29
2023-03-03T11:41:31.998Z,0.32
2023-03-03T11:44:23.273Z,0.32
2023-03-03T11:46:55.322Z,0.33
2023-03-03T11:49:29.343Z,0.26
2023-03-03T11:52:05.656Z,0.25
2023-03-03T11:54:35.471Z,0.27
2023-03-03T11:57:37.648Z,0.30
2023-03-03T12:00:55.826Z,0.29
2023-03-03T12:03:28.056Z,0.30
2023-03-03T12:06:22.654Z,0.34
2023-03-03T12:09:04.239Z,0.35
2023-03-03T12:12:15.495Z,0.35
2023-03-03T12:15:03.973Z,0.22
2023-03-03T12:17:56.363Z,0.15
2023-03-03T12:20:34.564Z,0.14
2023-03-03T12:23:18.840Z,0.13
2023-03-03T12:26:06.602Z,0.18
2023-03-03T12:29:14.767Z,0.20
2023-03-03T12:32:05.906Z,0.24
2023-03-03T12:34:44.833Z,0.19
2023-03-03T12:37:32.118Z,0.08
2023-03-03T12:40:04.165Z,0.03
2023-03-03T12:42:38.765Z,-0.03
2023-03-03T12:45:24.073Z,-0.01
2023-03-03T12:47:51.676Z,-0.06
2023-03-03T12:50:40.903Z,-0.03
2023-03-03T12:53:10.732Z,0.02
2023-03-03T12:55:37.936Z,0.07
2023-03-03T12:58:30.395Z,0.07
2023-03-03T13:01:06.798Z,0.11
2023-03-03T13:03:37.078Z,0.14
2023-03-03T13:06:39.290Z,0.17
2023-03-03T13:09:10.023Z,0.23
2023-03-03T13:11:42.908Z,0.25
2023-03-03T13:14:18.305Z,0.25
2023-03-03T13:17:08.845Z,0.27
2023-03-03T13:19:44.734Z,0.26
2023-03-03T13:22:19.295Z,0.32
2023-03-03T13:24:46.427Z,0.38
2023-03-03T13:27:20.709Z,0.42
2023-03-03T13:30:01.261Z,0.39
2023-03-03T13:32:35.639Z,0.40
2023-03-03T13:35:20.058Z,0.39
2023-03-03T13:37:54.201Z,0.30
2023-03-03T13:40:50.223Z,0.22
2023-03-03T13:43:24.274Z,0.16
2023-03-03T13:46:05.874Z,0.15
2023-03-03T13:48:54.542Z,0.10
2023-03-03T13:51:40.397Z,0.13
2023-03-03T13:54:28.248Z,0.08
2023-03-03T13:57:04.791Z,0.05
2023-03-03T13:59:47.205Z,0.02
2023-03-03T14:02:24.139Z,-0.03
2023-03-03T14:05:03.461Z,-0.03
2023-03-03T14:08:01.618Z,-0.08
2023-03-03T14:10:38.937Z,-0.12
2023-03-03T14:13:10.045Z,-0.16
2023-03-03T14:15:51.571Z,-0.16
2023-03-03T14:18:44.915Z,-0.16
2023-03-03T14:21:22.726Z,-0.17
2023-03-03T14:24:11.231Z,-0.20
2023-03-03T14:26:55.246Z,-0.21
2023-03-03T14:29:28.473Z,-0.25
2023-03-03T14:32:16.450Z,-0.26
2023-03-03T14:34:44.161Z,-0.29
2023-03-03T14:37:49.200Z,-0.25
2023-03-03T14:40:22.043Z,-0.29
2023-03-03T14:42:51.927Z,-0.28
2023-03-03T14:45:30.146Z,-0.33
2023-03-03T14:47:59.399Z,-0.37
2023-03-03T14:50:37.837Z,-0.32
2023-03-03T14:53:16.044Z,-0.37
2023-03-03T14:55:45.200Z,-0.40
2023-03-03T14:58:35.072Z,-0.45
2023-03-03T15:01:23.284Z,-0.42
2023-03-03T15:04:05.337Z,-0.40
2023-03-03T15:06:43.398Z,-0.38
2023-03-03T15:09:24.783Z,-0.39
2023-03-03T15:11:53.560Z,-0.45
2023-03-03T15:14:36.295Z,-0.42
2023-03-03T15:17:20.885Z,-0.45
2023-03-03T15:20:10.629Z,-0.47
2023-03-03T15:22:45.424Z,-0.47
2023-03-03T15:25:41.996Z,-0.47
2023-03-03T15:28:20.756Z,-0.48
2023-03-03T15:31:04.687Z,-0.48
2023-03-03T15:33:40.887Z,-0.45
2023-03-03T15:36:34.291Z,-0.46
2023-03-03T15:39:20.290Z,-0.47
2023-03-03T15:42:06.260Z,-0.46
2023-03-03T15:44:48.398Z,-0.48
2023-03-03T15:47:28.577Z,-0.53
2023-03-03T15:50:17.592Z,-0.51
2023-03-03T15:52:47.716Z,-0.56
2023-03-03T15:55:27.606Z,-0.56
2023-03-03T15:58:13.186Z,-0.59
2023-03-03T16:01:22.533Z,-0.61
2023-03-03T16:04:02.241Z,-0.70
2023-03-03T16:07:00.550Z,-0.63
2023-03-03T16:09:36.541Z,-0.69
2023-03-03T16:12:25.764Z,-0.73
2023-03-03T16:14:52.801Z,-0.76
2023-03-03T16:17:29.576Z,-0.81
2023-03-03T16:20:10.654Z,-0.82
2023-03-03T16:23:05.524Z,-0.86
2023-03-03T16:25:51.516Z,-0.90
2023-03-03T16:28:21.783Z,-0.97
2023-03-03T16:31:13.127Z,-1.03
2023-03-03T16:34:15.173Z,-1.15
2023-03-03T16:37:01.851Z,-1.27
2023-03-03T16:39:40.922Z,-1.35
2023-03-03T16:42:21.653Z,-1.39
2023-03-03T16:45:26.102Z,-1.34
2023-03-03T16:47:59.092Z,-1.22
2023-03-03T16:50:51.113Z,-1.13
2023-03-03T16:53:55.848Z,-1.22
2023-03-03T16:56:25.522Z,-1.35
2023-03-03T16:59:11.744Z,-1.36
2023-03-03T17:01:49.619Z,-1.30
2023-03-03T17:04:46.399Z,-1.47
2023-03-03T17:07:38.865Z,-1.59
2023-03-03T17:10:27.113Z,-1.52
2023-03-03T17:13:20.576Z,-1.61
2023-03-03T17:16:08.661Z,-1.66
2023-03-03T17:19:13.549Z,-1.69
2023-03-03T17:21:57.379Z,-1.67
2023-03-03T17:24:33.249Z,-1.72
2023-03-03T17:27:24.921Z,-1.80
2023-03-03T17:30:07.292Z,-1.85
2023-03-03T17:32:37.148Z,-1.99
2023-03-03T17:35:42.503Z,-2.04
2023-03-03T17:38:22.732Z,-2.08
2023-03-03T17:40:52.616Z,-2.20
2023-03-03T17:43:28.356Z,-2.30
2023-03-03T17:45:56.916Z,-2.30
2023-03-03T17:48:49.370Z,-2.40
2023-03-03T17:51:30.933Z,-2.40
2023-03-03T17:53:57.848Z,-2.40
2023-03-03T17:56:43.849Z,-2.45
2023-03-03T17:59:22.944Z,-2.56
2023-03-03T18:02:16.622Z,-2.57
2023-03-03T18:04:52.999Z,-2.75
2023-03-03T18:07:34.650Z,-2.84
2023-03-03T18:10:31.695Z,-2.84
2023-03-03T18:13:07.995Z,-2.84
2023-03-03T18:16:12.751Z,-2.91
2023-03-03T18:18:49.121Z,-2.93
2023-03-03T18:21:19.028Z,-3.06
2023-03-03T18:23:47.378Z,-3.09
2023-03-03T18:26:35.254Z,-3.06
2023-03-03T18:29:20.141Z,-3.09
2023-03-03T18:31:53.768Z,-3.11
2023-03-03T18:34:20.791Z,-3.11
2023-03-03T18:37:20.343Z,-3.09
2023-03-03T18:40:18.669Z,-3.16
2023-03-03T18:42:49.145Z,-3.34
2023-03-03T18:45:23.220Z,-3.38
2023-03-03T18:48:12.093Z,-3.52
2023-03-03T18:50:44.550Z,-3.63
2023-03-03T18:53:33.861Z,-3.68
2023-03-03T18:56:02.782Z,-3.61
2023-03-03T18:58:41.949Z,-3.59
2023-03-03T19:01:10.836Z,-3.61
2023-03-03T19:03:57.129Z,-3.53
2023-03-03T19:06:35.996Z,-3.53
2023-03-03T19:09:05.944Z,-3.51
2023-03-03T19:11:59.310Z,-3.57
2023-03-03T19:14:27.919Z,-3.66
2023-03-03T19:16:56.386Z,-3.75
2023-03-03T19:19:35.098Z,-3.79
2023-03-03T19:22:22.702Z,-3.80
2023-03-03T19:25:14.105Z,-3.81
2023-03-03T19:28:22.015Z,-3.86
2023-03-03T19:31:33.153Z,-3.98
2023-03-03T19:34:40.211Z,-3.92
2023-03-03T19:37:15.237Z,-3.96
2023-03-03T19:40:01.079Z,-3.96
2023-03-03T19:42:30.066Z,-4.02
2023-03-03T19:45:02.005Z,-3.99
2023-03-03T19:47:44.579Z,-3.99
2023-03-03T19:50:37.438Z,-3.99
2023-03-03T19:53:27.945Z,-3.99
2023-03-03T19:56:17.835Z,-4.08
2023-03-03T19:58:44.853Z,-4.26
2023-03-03T20:01:21.720Z,-4.40
2023-03-03T20:03:58.496Z,-4.38
2023-03-03T20:06:36.065Z,-4.43
2023-03-03T20:09:09.031Z,-4.48
2023-03-03T20:11:48.932Z,-4.45
2023-03-03T20:14:29.722Z,-4.38
2023-03-03T20:17:05.440Z,-4.42
2023-03-03T20:19:35.050Z,-4.38
2023-03-03T20:22:11.810Z,-4.41
2023-03-03T20:24:50.627Z,-4.36
2023-03-03T20:27:24.899Z,-4.38
2023-03-03T20:30:23.001Z,-4.33
2023-03-03T20:33:04.953Z,-4.26
2023-03-03T20:35:37.641Z,-4.27
2023-03-03T20:38:33.229Z,-4.32
2023-03-03T20:41:04.152Z,-4.41
2023-03-03T20:43:51.464Z,-4.55
2023-03-03T20:46:23.237Z,-4.61
2023-03-03T20:49:16.148Z,-4.69
2023-03-03T20:51:51.835Z,-4.71
2023-03-03T20:54:33.966Z,-4.72
2023-03-03T20:57:06.762Z,-4.69
2023-03-03T20:59:41.617Z,-4.67
2023-03-03T21:02:27.698Z,-4.68
2023-03-03T21:05:15.165Z,-4.67
2023-03-03T21:08:02.390Z,-4.68
2023-03-03T21:10:31.742Z,-4.57
2023-03-03T21:13:19.576Z,-4.61
2023-03-03T21:15:57.006Z,-4.65
2023-03-03T21:18:24.833Z,-4.48
2023-03-03T21:20:51.878Z,-4.42
2023-03-03T21:23:21.105Z,-4.45
2023-03-03T21:25:55.540Z,-4.43
2023-03-03T21:28:26.598Z,-4.36
2023-03-03T21:31:03.282Z,-4.41
2023-03-03T21:33:56.629Z,-4.43
2023-03-03T21:36:43.818Z,-4.39
2023-03-03T21:39:34.756Z,-4.39
2023-03-03T21:42:07.362Z,-4.36
2023-03-03T21:44:41.012Z,-4.34
2023-03-03T21:47:10.178Z,-4.35
2023-03-03T21:49:41.430Z,-4.34
2023-03-03T21:52:09.175Z,-4.30
2023-03-03T21:54:36.176Z,-4.27
2023-03-03T21:57:03.219Z,-4.26
2023-03-03T21:59:30.617Z,-4.30
2023-03-03T22:01:57.602Z,-4.31
2023-03-03T22:04:24.613Z,-4.39
2023-03-03T22:06:52.977Z,-4.48
2023-03-03T22:09:20.168Z,-4.54
2023-03-03T22:11:47.435Z,-4.66
2023-03-03T22:14:14.810Z,-4.78
2023-03-03T22:16:41.986Z,-4.85
2023-03-03T22:19:09.405Z,-4.95
2023-03-03T22:21:37.542Z,-5.07
2023-03-03T22:24:05.766Z,-5.14
2023-03-03T22:26:33.175Z,-5.21
2023-03-03T22:29:00.398Z,-5.28
2023-03-03T22:31:27.695Z,-5.19
2023-03-03T22:33:54.709Z,-5.10
2023-03-03T22:36:21.890Z,-4.99
2023-03-03T22:38:49.281Z,-4.88
2023-03-03T22:41:16.472Z,-4.75
2023-03-03T22:43:43.487Z,-4.74
2023-03-03T22:46:11.022Z,-4.69
2023-03-03T22:48:38.169Z,-4.65
2023-03-03T22:51:07.841Z,-4.65
2023-03-03T22:53:34.984Z,-4.63
2023-03-03T22:56:02.040Z,-4.62
2023-03-03T22:58:29.578Z,-4.63
2023-03-03T23:00:56.806Z,-4.60
2023-03-03T23:03:24.509Z,-4.62
2023-03-03T23:05:52.117Z,-4.64
2023-03-03T23:08:20.558Z,-4.65
2023-03-03T23:10:48.333Z,-4.67
2023-03-03T23:13:15.362Z,-4.71
2023-03-03T23:15:42.814Z,-4.73
2023-03-03T23:18:10.555Z,-4.77
2023-03-03T23:20:38.230Z,-4.76
2023-03-03T23:23:05.305Z,-4.69
2023-03-03T23:25:32.359Z,-4.64
2023-03-03T23:27:59.330Z,-4.58
2023-03-03T23:30:26.689Z,-4.55
2023-03-03T23:32:54.062Z,-4.54
2023-03-03T23:35:21.183Z,-4.53
2023-03-03T23:37:48.286Z,-4.52
2023-03-03T23:40:17.219Z,-4.52
2023-03-03T23:42:44.562Z,-4.51
2023-03-03T23:45:12.786Z,-4.52
2023-03-03T23:47:39.814Z,-4.51
2023-03-03T23:50:07.636Z,-4.51
2023-03-03T23:52:34.629Z,-4.51
2023-03-03T23:55:01.833Z,-4.59
2023-03-03T23:57:30.264Z,-4.62
2023-03-03T23:59:57.262Z,-4.63
